Time,TemperatureF,DewpointF,PressureIn,WindDirection,WindDirectionDegrees,WindSpeedMPH,WindSpeedGustMPH,Humidity,HourlyPrecipIn,Conditions,Clouds,dailyrainin,SoftwareType,DateUTC
2013-10-30 00:00:00,59.2,55.0,30.26,South,175,0.0,0.0,86,0.00,,---,0.00,VWS V14.01,2013-10-30 04:00:00,
2013-10-30 00:01:00,59.2,55.0,30.27,South,175,0.0,0.0,86,0.00,,---,0.00,VWS V14.01,2013-10-30 04:01:00,
2013-10-30 00:06:00,59.1,54.9,30.26,South,175,0.0,0.0,86,0.00,,---,0.00,VWS V14.01,2013-10-30 04:06:00,
2013-10-30 00:11:00,59.0,54.8,30.26,South,175,0.0,0.0,86,0.00,,---,0.00,VWS V14.01,2013-10-30 04:11:00,
2013-10-30 00:16:00,58.9,54.7,30.26,South,175,0.0,0.0,86,0.00,,---,0.00,VWS V14.01,2013-10-30 04:16:00,
2013-10-30 00:21:00,58.9,54.7,30.26,South,175,0.0,0.0,86,0.00,,---,0.00,VWS V14.01,2013-10-30 04:21:00,
2013-10-30 00:26:00,58.8,54.6,30.26,South,175,0.0,0.0,86,0.00,,---,0.00,VWS V14.01,2013-10-30 04:26:00,
2013-10-30 00:30:00,58.7,54.5,30.26,South,175,0.0,0.0,86,0.00,,---,0.00,VWS V14.01,2013-10-30 04:30:00,
2013-10-30 00:31:00,58.6,54.4,30.25,South,175,0.0,0.0,86,0.00,,---,0.00,VWS V14.01,2013-10-30 04:31:00,
2013-10-30 00:36:00,58.5,54.3,30.26,South,175,0.0,0.0,86,0.00,,---,0.00,VWS V14.01,2013-10-30 04:36:00,
2013-10-30 00:41:00,58.6,54.4,30.26,South,175,0.0,0.0,86,0.00,,---,0.00,VWS V14.01,2013-10-30 04:41:00,
2013-10-30 00:46:00,58.6,54.4,30.26,South,175,0.0,0.0,86,0.00,,---,0.00,VWS V14.01,2013-10-30 04:46:00,
2013-10-30 00:51:00,58.6,54.4,30.25,South,175,0.0,0.0,86,0.00,,---,0.00,VWS V14.01,2013-10-30 04:51:00,
2013-10-30 00:56:00,58.5,54.3,30.25,South,175,0.0,0.0,86,0.00,,---,0.00,VWS V14.01,2013-10-30 04:56:00,
2013-10-30 01:00:00,58.4,54.2,30.25,South,175,0.0,0.0,86,0.00,,---,0.00,VWS V14.01,2013-10-30 05:00:00,
2013-10-30 01:01:00,58.4,54.2,30.25,South,175,0.0,0.0,86,0.00,,---,0.00,VWS V14.01,2013-10-30 05:01:00,
2013-10-30 01:06:00,58.3,54.5,30.25,South,175,0.0,0.0,87,0.00,,---,0.00,VWS V14.01,2013-10-30 05:06:00,
2013-10-30 01:11:00,58.4,54.5,30.25,South,175,0.0,0.0,87,0.00,,---,0.00,VWS V14.01,2013-10-30 05:11:00,
2013-10-30 01:16:00,58.4,54.5,30.24,South,175,0.0,0.0,87,0.00,,---,0.00,VWS V14.01,2013-10-30 05:16:00,
2013-10-30 01:21:00,58.2,54.4,30.25,South,175,0.0,0.0,87,0.00,,---,0.00,VWS V14.01,2013-10-30 05:21:00,
2013-10-30 01:26:00,58.2,54.4,30.25,South,175,0.0,0.0,87,0.00,,---,0.00,VWS V14.01,2013-10-30 05:26:00,
2013-10-30 01:30:00,58.2,54.3,30.25,South,175,0.0,0.0,87,0.00,,---,0.00,VWS V14.01,2013-10-30 05:30:00,
2013-10-30 01:31:00,58.2,54.4,30.25,South,175,0.0,0.0,87,0.00,,---,0.00,VWS V14.01,2013-10-30 05:31:00,
2013-10-30 01:36:00,58.1,54.3,30.25,South,175,0.0,0.0,87,0.00,,---,0.00,VWS V14.01,2013-10-30 05:36:00,
2013-10-30 01:41:00,58.0,54.2,30.25,South,175,0.0,0.0,87,0.00,,---,0.00,VWS V14.01,2013-10-30 05:41:00,
2013-10-30 01:46:00,57.9,54.1,30.25,South,175,0.0,0.0,87,0.00,,---,0.00,VWS V14.01,2013-10-30 05:46:00,
2013-10-30 01:51:00,57.8,54.0,30.25,South,175,0.0,0.0,87,0.00,,---,0.00,VWS V14.01,2013-10-30 05:51:00,
2013-10-30 01:56:00,57.7,53.9,30.25,South,175,0.0,0.0,87,0.00,,---,0.00,VWS V14.01,2013-10-30 05:56:00,
2013-10-30 02:00:00,57.7,53.9,30.25,South,175,0.0,0.0,87,0.00,,---,0.00,VWS V14.01,2013-10-30 06:00:00,
2013-10-30 02:01:00,57.6,53.8,30.24,South,175,0.0,0.0,87,0.00,,---,0.00,VWS V14.01,2013-10-30 06:01:00,
2013-10-30 02:06:00,57.6,53.8,30.24,South,175,0.0,0.0,87,0.00,,---,0.00,VWS V14.01,2013-10-30 06:06:00,
2013-10-30 02:11:00,57.5,53.7,30.24,South,175,0.0,0.0,87,0.00,,---,0.00,VWS V14.01,2013-10-30 06:11:00,
2013-10-30 02:16:00,57.3,53.5,30.24,South,175,0.0,0.0,87,0.00,,---,0.00,VWS V14.01,2013-10-30 06:16:00,
2013-10-30 02:21:00,57.3,53.5,30.24,South,175,0.0,0.0,87,0.00,,---,0.00,VWS V14.01,2013-10-30 06:21:00,
2013-10-30 02:26:00,57.3,53.5,30.24,South,175,0.0,0.0,87,0.00,,---,0.00,VWS V14.01,2013-10-30 06:26:00,
2013-10-30 02:30:00,57.2,53.4,30.24,South,175,0.0,0.0,87,0.00,,---,0.00,VWS V14.01,2013-10-30 06:30:00,
2013-10-30 02:31:00,57.2,53.4,30.24,South,175,0.0,0.0,87,0.00,,---,0.00,VWS V14.01,2013-10-30 06:31:00,
2013-10-30 02:35:00,57.1,53.3,30.23,South,175,0.0,0.0,87,0.00,,---,0.00,VWS V14.01,2013-10-30 06:35:00,
2013-10-30 02:40:00,57.0,53.2,30.23,South,175,0.0,0.0,87,0.00,,---,0.00,VWS V14.01,2013-10-30 06:40:00,
2013-10-30 02:45:00,56.8,53.0,30.23,South,175,0.0,0.0,87,0.00,,---,0.00,VWS V14.01,2013-10-30 06:45:00,
2013-10-30 02:50:00,56.8,53.0,30.23,South,175,0.0,0.0,87,0.00,,---,0.00,VWS V14.01,2013-10-30 06:50:00,
2013-10-30 02:55:00,56.8,53.0,30.23,South,175,0.0,0.0,87,0.00,,---,0.00,VWS V14.01,2013-10-30 06:55:00,
2013-10-30 03:00:00,56.7,52.9,30.22,South,175,0.0,0.0,87,0.00,,---,0.00,VWS V14.01,2013-10-30 07:00:00,
2013-10-30 03:01:00,56.6,52.8,30.23,South,175,0.0,0.0,87,0.00,,---,0.00,VWS V14.01,2013-10-30 07:01:00,
2013-10-30 03:06:00,56.6,52.8,30.23,South,175,0.0,0.0,87,0.00,,---,0.00,VWS V14.01,2013-10-30 07:06:00,
2013-10-30 03:11:00,56.7,52.9,30.23,South,175,0.0,0.0,87,0.00,,---,0.00,VWS V14.01,2013-10-30 07:11:00,
2013-10-30 03:16:00,56.8,53.0,30.23,South,175,0.0,0.0,87,0.00,,---,0.00,VWS V14.01,2013-10-30 07:16:00,
2013-10-30 03:21:00,56.7,52.9,30.22,South,175,0.0,0.0,87,0.00,,---,0.00,VWS V14.01,2013-10-30 07:21:00,
2013-10-30 03:26:00,56.6,52.8,30.22,South,175,0.0,0.0,87,0.00,,---,0.00,VWS V14.01,2013-10-30 07:26:00,
2013-10-30 03:30:00,56.6,52.8,30.22,South,175,0.0,0.0,87,0.00,,---,0.00,VWS V14.01,2013-10-30 07:30:00,
2013-10-30 03:31:00,56.6,52.8,30.22,South,175,0.0,0.0,87,0.00,,---,0.00,VWS V14.01,2013-10-30 07:31:00,
2013-10-30 03:36:00,56.5,52.7,30.22,South,175,0.0,0.0,87,0.00,,---,0.00,VWS V14.01,2013-10-30 07:36:00,
2013-10-30 03:41:00,56.4,52.6,30.22,South,176,0.0,0.0,87,0.00,,---,0.00,VWS V14.01,2013-10-30 07:41:00,
2013-10-30 03:46:00,56.4,52.6,30.22,South,176,0.0,0.0,87,0.00,,---,0.00,VWS V14.01,2013-10-30 07:46:00,
2013-10-30 03:51:00,56.4,52.9,30.22,South,176,0.0,0.0,88,0.00,,---,0.00,VWS V14.01,2013-10-30 07:51:00,
2013-10-30 03:56:00,56.3,52.5,30.22,South,176,0.0,0.0,87,0.00,,---,0.00,VWS V14.01,2013-10-30 07:56:00,
2013-10-30 04:00:00,56.3,52.5,30.22,South,176,0.0,0.0,87,0.00,,---,0.00,VWS V14.01,2013-10-30 08:00:00,
2013-10-30 04:05:00,56.3,52.5,30.22,South,176,0.0,0.0,87,0.00,,---,0.00,VWS V14.01,2013-10-30 08:05:00,
2013-10-30 04:11:00,56.2,52.4,30.22,South,176,0.0,0.0,87,0.00,,---,0.00,VWS V14.01,2013-10-30 08:11:00,
2013-10-30 04:16:00,56.1,52.3,30.22,SW,221,0.0,3.0,87,0.00,,---,0.00,VWS V14.01,2013-10-30 08:16:00,
2013-10-30 04:21:00,56.2,52.7,30.22,SW,221,0.0,3.0,88,0.00,,---,0.00,VWS V14.01,2013-10-30 08:21:00,
2013-10-30 04:26:00,56.2,52.7,30.22,SW,221,0.0,3.0,88,0.00,,---,0.00,VWS V14.01,2013-10-30 08:26:00,
2013-10-30 04:30:00,56.3,52.8,30.22,SW,221,0.0,3.0,88,0.00,,---,0.00,VWS V14.01,2013-10-30 08:30:00,
2013-10-30 04:31:00,56.3,52.8,30.22,SW,221,0.0,0.0,88,0.00,,---,0.00,VWS V14.01,2013-10-30 08:31:00,
2013-10-30 04:36:00,56.2,52.7,30.22,SW,221,0.0,0.0,88,0.00,,---,0.00,VWS V14.01,2013-10-30 08:36:00,
2013-10-30 04:41:00,56.2,52.7,30.22,SW,221,0.0,0.0,88,0.00,,---,0.00,VWS V14.01,2013-10-30 08:41:00,
2013-10-30 04:46:00,56.2,52.7,30.22,SW,221,0.0,0.0,88,0.00,,---,0.00,VWS V14.01,2013-10-30 08:46:00,
2013-10-30 04:51:00,56.1,52.6,30.23,SW,221,0.0,0.0,88,0.00,,---,0.00,VWS V14.01,2013-10-30 08:51:00,
2013-10-30 04:56:00,56.1,52.6,30.23,SW,221,0.0,0.0,88,0.00,,---,0.00,VWS V14.01,2013-10-30 08:56:00,
2013-10-30 05:00:00,56.0,52.5,30.23,SW,221,0.0,0.0,88,0.00,,---,0.00,VWS V14.01,2013-10-30 09:00:00,
2013-10-30 05:01:00,56.0,52.5,30.23,WSW,237,2.0,4.0,88,0.00,,---,0.00,VWS V14.01,2013-10-30 09:01:00,
2013-10-30 05:06:00,56.2,52.7,30.23,WSW,252,0.0,4.0,88,0.00,,---,0.00,VWS V14.01,2013-10-30 09:06:00,
2013-10-30 05:11:00,56.3,52.8,30.23,WSW,252,0.0,4.0,88,0.00,,---,0.00,VWS V14.01,2013-10-30 09:11:00,
2013-10-30 05:16:00,56.3,52.8,30.23,WSW,252,0.0,4.0,88,0.00,,---,0.00,VWS V14.01,2013-10-30 09:16:00,
2013-10-30 05:20:00,56.2,52.7,30.24,WSW,252,0.0,4.0,88,0.00,,---,0.00,VWS V14.01,2013-10-30 09:20:00,
2013-10-30 05:25:00,56.2,52.7,30.24,WSW,252,0.0,4.0,88,0.00,,---,0.00,VWS V14.01,2013-10-30 09:25:00,
2013-10-30 05:30:00,56.2,52.7,30.24,WSW,252,0.0,0.0,88,0.00,,---,0.00,VWS V14.01,2013-10-30 09:30:00,
2013-10-30 05:35:00,56.2,52.7,30.25,WSW,257,0.0,4.0,88,0.00,,---,0.00,VWS V14.01,2013-10-30 09:35:00,
2013-10-30 05:40:00,56.3,52.8,30.25,WSW,257,0.0,4.0,88,0.00,,---,0.00,VWS V14.01,2013-10-30 09:40:00,
2013-10-30 05:45:00,56.3,52.8,30.24,WSW,257,0.0,4.0,88,0.00,,---,0.00,VWS V14.01,2013-10-30 09:45:00,
2013-10-30 05:50:00,56.3,52.8,30.24,WSW,257,0.0,4.0,88,0.00,,---,0.00,VWS V14.01,2013-10-30 09:50:00,
2013-10-30 05:55:00,56.3,52.8,30.24,WSW,257,0.0,4.0,88,0.00,,---,0.00,VWS V14.01,2013-10-30 09:55:00,
2013-10-30 06:00:00,56.3,52.8,30.24,WSW,257,0.0,4.0,88,0.00,,---,0.00,VWS V14.01,2013-10-30 10:00:00,
2013-10-30 06:01:00,56.3,52.8,30.24,WSW,257,0.0,0.0,88,0.00,,---,0.00,VWS V14.01,2013-10-30 10:01:00,
2013-10-30 06:06:00,56.3,52.8,30.24,WSW,257,0.0,0.0,88,0.00,,---,0.00,VWS V14.01,2013-10-30 10:06:00,
2013-10-30 06:11:00,56.2,52.7,30.24,WSW,257,0.0,0.0,88,0.00,,---,0.00,VWS V14.01,2013-10-30 10:11:00,
2013-10-30 06:15:00,56.2,52.7,30.24,WSW,257,0.0,0.0,88,0.00,,---,0.00,VWS V14.01,2013-10-30 10:15:00,
2013-10-30 06:20:00,56.3,52.8,30.24,WSW,257,0.0,0.0,88,0.00,,---,0.00,VWS V14.01,2013-10-30 10:20:00,
2013-10-30 06:25:00,56.3,52.8,30.25,WSW,257,0.0,0.0,88,0.00,,---,0.00,VWS V14.01,2013-10-30 10:25:00,
2013-10-30 06:30:00,56.3,52.8,30.25,WSW,257,0.0,0.0,88,0.00,,---,0.00,VWS V14.01,2013-10-30 10:30:00,
2013-10-30 06:35:00,56.2,52.7,30.25,WSW,258,0.0,0.0,88,0.00,,---,0.00,VWS V14.01,2013-10-30 10:35:00,
2013-10-30 06:40:00,56.2,52.7,30.26,West,259,0.0,2.0,88,0.00,,---,0.00,VWS V14.01,2013-10-30 10:40:00,
2013-10-30 06:45:00,56.1,52.6,30.26,West,259,0.0,3.0,88,0.00,,---,0.00,VWS V14.01,2013-10-30 10:45:00,
2013-10-30 06:50:00,56.0,52.5,30.26,West,273,0.0,3.0,88,0.00,,---,0.00,VWS V14.01,2013-10-30 10:50:00,
2013-10-30 06:55:00,56.0,52.5,30.26,West,279,0.0,5.0,88,0.00,,---,0.00,VWS V14.01,2013-10-30 10:55:00,
2013-10-30 07:00:00,55.9,52.4,30.26,WNW,282,3.0,4.0,88,0.00,,---,0.00,VWS V14.01,2013-10-30 11:00:00,
2013-10-30 07:05:00,55.8,52.3,30.26,WNW,284,0.0,5.0,88,0.00,,---,0.00,VWS V14.01,2013-10-30 11:05:00,
2013-10-30 07:10:00,55.7,52.2,30.26,WNW,284,0.0,5.0,88,0.00,,---,0.00,VWS V14.01,2013-10-30 11:10:00,
2013-10-30 07:15:00,55.7,52.2,30.26,WNW,284,0.0,5.0,88,0.00,,---,0.00,VWS V14.01,2013-10-30 11:15:00,
2013-10-30 07:20:00,55.7,52.2,30.26,WNW,284,0.0,5.0,88,0.00,,---,0.00,VWS V14.01,2013-10-30 11:20:00,
2013-10-30 07:25:00,55.7,52.2,30.26,WNW,284,0.0,5.0,88,0.00,,---,0.00,VWS V14.01,2013-10-30 11:25:00,
2013-10-30 07:30:00,55.7,52.2,30.27,WNW,284,0.0,0.0,88,0.00,,---,0.00,VWS V14.01,2013-10-30 11:30:00,
2013-10-30 07:35:00,55.7,52.2,30.27,WNW,284,0.0,1.0,88,0.00,,---,0.00,VWS V14.01,2013-10-30 11:35:00,
2013-10-30 07:40:00,55.6,52.1,30.27,WNW,284,0.0,1.0,88,0.00,,---,0.00,VWS V14.01,2013-10-30 11:40:00,
2013-10-30 07:45:00,55.6,52.1,30.27,WNW,284,0.0,1.0,88,0.00,,---,0.00,VWS V14.01,2013-10-30 11:45:00,
2013-10-30 07:50:00,55.7,52.2,30.27,WNW,285,0.0,1.0,88,0.00,,---,0.00,VWS V14.01,2013-10-30 11:50:00,
2013-10-30 07:55:00,55.9,52.4,30.27,WNW,294,0.0,1.0,88,0.00,,---,0.00,VWS V14.01,2013-10-30 11:55:00,
2013-10-30 08:00:00,56.1,52.9,30.27,WNW,298,0.0,1.0,89,0.00,,---,0.00,VWS V14.01,2013-10-30 12:00:00,
2013-10-30 08:05:00,56.4,53.2,30.27,WNW,298,0.0,1.0,89,0.00,,---,0.00,VWS V14.01,2013-10-30 12:05:00,
2013-10-30 08:10:00,56.8,53.6,30.27,WNW,297,0.0,1.0,89,0.00,,---,0.00,VWS V14.01,2013-10-30 12:10:00,
2013-10-30 08:15:00,57.1,53.9,30.27,WNW,298,0.0,1.0,89,0.00,,---,0.00,VWS V14.01,2013-10-30 12:15:00,
2013-10-30 08:20:00,57.5,54.3,30.28,WNW,298,0.0,1.0,89,0.00,,---,0.00,VWS V14.01,2013-10-30 12:20:00,
2013-10-30 08:25:00,57.7,54.5,30.28,WNW,298,1.0,1.0,89,0.00,,---,0.00,VWS V14.01,2013-10-30 12:25:00,
2013-10-30 08:30:00,55.7,52.2,30.27,WNW,284,0.0,5.0,88,0.00,,---,0.00,VWS V14.01,2013-10-30 12:30:00,
2013-10-30 08:31:00,57.8,54.6,30.28,NW,306,0.0,0.0,89,0.00,,---,0.00,VWS V14.01,2013-10-30 12:31:00,
2013-10-30 08:36:00,57.9,54.7,30.28,NW,306,0.0,0.0,89,0.00,,---,0.00,VWS V14.01,2013-10-30 12:36:00,
2013-10-30 08:41:00,58.3,55.1,30.28,NW,307,3.0,3.0,89,0.00,,---,0.00,VWS V14.01,2013-10-30 12:41:00,
2013-10-30 08:46:00,58.7,55.5,30.27,NW,308,0.0,3.0,89,0.00,,---,0.00,VWS V14.01,2013-10-30 12:46:00,
2013-10-30 08:51:00,59.1,55.9,30.28,NW,308,0.0,3.0,89,0.00,,---,0.00,VWS V14.01,2013-10-30 12:51:00,
2013-10-30 08:56:00,59.7,56.5,30.28,NW,308,0.0,3.0,89,0.00,,---,0.00,VWS V14.01,2013-10-30 12:56:00,
2013-10-30 09:00:00,56.1,52.9,30.27,WNW,297,1.0,1.0,89,0.00,,---,0.00,VWS V14.01,2013-10-30 13:00:00,
2013-10-30 09:01:00,60.2,57.0,30.28,NW,308,0.0,2.0,89,0.00,,---,0.00,VWS V14.01,2013-10-30 13:01:00,
2013-10-30 09:06:00,60.8,57.5,30.29,NW,308,0.0,2.0,89,0.00,,---,0.00,VWS V14.01,2013-10-30 13:06:00,
2013-10-30 09:11:00,61.2,57.9,30.29,NW,308,0.0,2.0,89,0.00,,---,0.00,VWS V14.01,2013-10-30 13:11:00,
2013-10-30 09:16:00,61.4,58.1,30.29,NW,308,0.0,2.0,89,0.00,,---,0.00,VWS V14.01,2013-10-30 13:16:00,
2013-10-30 09:21:00,61.5,58.2,30.29,NW,307,0.0,2.0,89,0.00,,---,0.00,VWS V14.01,2013-10-30 13:21:00,
2013-10-30 09:26:00,61.6,58.3,30.29,NW,307,0.0,2.0,89,0.00,,---,0.00,VWS V14.01,2013-10-30 13:26:00,
2013-10-30 09:31:00,61.8,58.5,30.29,NW,307,0.0,0.0,89,0.00,,---,0.00,VWS V14.01,2013-10-30 13:31:00,
2013-10-30 09:36:00,62.3,59.0,30.29,WNW,292,0.0,0.0,89,0.00,,---,0.00,VWS V14.01,2013-10-30 13:36:00,
2013-10-30 09:41:00,62.5,58.9,30.29,East,88,0.0,3.0,88,0.00,,---,0.00,VWS V14.01,2013-10-30 13:41:00,
2013-10-30 09:46:00,62.9,59.3,30.29,NNW,332,0.0,3.0,88,0.00,,---,0.00,VWS V14.01,2013-10-30 13:46:00,
2013-10-30 09:51:00,63.5,59.9,30.29,NNW,329,0.0,3.0,88,0.00,,---,0.00,VWS V14.01,2013-10-30 13:51:00,
2013-10-30 09:56:00,63.7,60.1,30.30,NW,323,0.0,4.0,88,0.00,,---,0.00,VWS V14.01,2013-10-30 13:56:00,
2013-10-30 10:00:00,60.1,56.8,30.28,NW,308,0.0,3.0,89,0.00,,---,0.00,VWS V14.01,2013-10-30 14:00:00,
2013-10-30 10:01:00,64.2,60.6,30.29,NW,313,0.0,0.0,88,0.00,,---,0.00,VWS V14.01,2013-10-30 14:01:00,
2013-10-30 10:06:00,64.3,60.3,30.30,NW,313,0.0,0.0,87,0.00,,---,0.00,VWS V14.01,2013-10-30 14:06:00,
2013-10-30 10:11:00,64.7,60.8,30.29,NW,313,0.0,3.0,87,0.00,,---,0.00,VWS V14.01,2013-10-30 14:11:00,
2013-10-30 10:16:00,65.1,61.1,30.29,NW,313,0.0,3.0,87,0.00,,---,0.00,VWS V14.01,2013-10-30 14:16:00,
2013-10-30 10:21:00,65.8,61.5,30.29,NW,312,0.0,3.0,86,0.00,,---,0.00,VWS V14.01,2013-10-30 14:21:00,
2013-10-30 10:26:00,66.3,62.0,30.29,NW,312,0.0,3.0,86,0.00,,---,0.00,VWS V14.01,2013-10-30 14:26:00,
2013-10-30 10:30:00,61.7,58.1,30.29,NW,307,0.0,2.0,88,0.00,,---,0.00,VWS V14.01,2013-10-30 14:30:00,
2013-10-30 10:31:00,66.7,62.0,30.30,NW,312,0.0,0.0,85,0.00,,---,0.00,VWS V14.01,2013-10-30 14:31:00,
2013-10-30 10:36:00,67.2,62.2,30.29,NW,312,0.0,0.0,84,0.00,,---,0.00,VWS V14.01,2013-10-30 14:36:00,
2013-10-30 10:41:00,67.6,62.3,30.29,NW,312,0.0,0.0,83,0.00,,---,0.00,VWS V14.01,2013-10-30 14:41:00,
2013-10-30 10:46:00,68.0,62.3,30.29,NW,312,0.0,2.0,82,0.00,,---,0.00,VWS V14.01,2013-10-30 14:46:00,
2013-10-30 10:51:00,68.4,62.3,30.29,NW,312,0.0,3.0,81,0.00,,---,0.00,VWS V14.01,2013-10-30 14:51:00,
2013-10-30 10:56:00,69.0,62.6,30.29,NW,312,0.0,3.0,80,0.00,,---,0.00,VWS V14.01,2013-10-30 14:56:00,
2013-10-30 11:00:00,64.0,60.4,30.30,NW,313,0.0,4.0,88,0.00,,---,0.00,VWS V14.01,2013-10-30 15:00:00,
2013-10-30 11:01:00,69.4,62.6,30.29,NW,313,0.0,0.0,79,0.00,,---,0.00,VWS V14.01,2013-10-30 15:01:00,
2013-10-30 11:06:00,69.6,62.4,30.29,NW,312,0.0,2.0,78,0.00,,---,0.00,VWS V14.01,2013-10-30 15:06:00,
2013-10-30 11:11:00,69.7,61.4,30.28,NW,311,0.0,2.0,75,0.00,,---,0.00,VWS V14.01,2013-10-30 15:11:00,
2013-10-30 11:16:00,70.2,61.9,30.28,NW,311,0.0,2.0,75,0.00,,---,0.00,VWS V14.01,2013-10-30 15:16:00,
2013-10-30 11:21:00,70.6,62.3,30.28,NW,314,0.0,4.0,75,0.00,,---,0.00,VWS V14.01,2013-10-30 15:21:00,
2013-10-30 11:26:00,70.9,62.6,30.28,NW,319,0.0,5.0,75,0.00,,---,0.00,VWS V14.01,2013-10-30 15:26:00,
2013-10-30 11:30:00,66.6,62.0,30.30,NW,312,0.0,3.0,85,0.00,,---,0.00,VWS V14.01,2013-10-30 15:30:00,
2013-10-30 11:31:00,70.9,61.8,30.28,ESE,118,2.0,4.0,73,0.00,,---,0.00,VWS V14.01,2013-10-30 15:31:00,
2013-10-30 11:36:00,70.5,61.8,30.28,ESE,121,2.0,6.0,74,0.00,,---,0.00,VWS V14.01,2013-10-30 15:36:00,
2013-10-30 11:41:00,70.4,62.1,30.28,SSE,161,4.0,6.0,75,0.00,,---,0.00,VWS V14.01,2013-10-30 15:41:00,
2013-10-30 11:46:00,70.4,61.7,30.28,SSE,157,0.0,6.0,74,0.00,,---,0.00,VWS V14.01,2013-10-30 15:46:00,
2013-10-30 11:51:00,70.6,61.9,30.28,SSE,156,0.0,6.0,74,0.00,,---,0.00,VWS V14.01,2013-10-30 15:51:00,
2013-10-30 11:56:00,70.8,62.1,30.28,SSE,147,5.0,6.0,74,0.00,,---,0.00,VWS V14.01,2013-10-30 15:56:00,
2013-10-30 12:00:00,69.3,62.5,30.29,NW,313,0.0,3.0,79,0.00,,---,0.00,VWS V14.01,2013-10-30 16:00:00,
2013-10-30 12:01:00,70.8,61.7,30.28,SE,138,3.0,4.0,73,0.00,,---,0.00,VWS V14.01,2013-10-30 16:01:00,
2013-10-30 12:05:00,70.8,61.7,30.27,SE,128,0.0,6.0,73,0.00,,---,0.00,VWS V14.01,2013-10-30 16:05:00,
2013-10-30 12:10:00,70.6,61.5,30.27,ESE,122,4.0,6.0,73,0.00,,---,0.00,VWS V14.01,2013-10-30 16:10:00,
2013-10-30 12:15:00,70.7,61.6,30.27,ESE,121,3.0,6.0,73,0.00,,---,0.00,VWS V14.01,2013-10-30 16:15:00,
2013-10-30 12:20:00,70.5,61.4,30.27,SE,136,6.0,6.0,73,0.00,,---,0.00,VWS V14.01,2013-10-30 16:20:00,
2013-10-30 12:25:00,70.5,61.4,30.26,SE,126,2.0,9.0,73,0.00,,---,0.00,VWS V14.01,2013-10-30 16:25:00,
2013-10-30 12:30:00,70.4,61.3,30.26,SE,129,2.0,6.0,73,0.00,,---,0.00,VWS V14.01,2013-10-30 16:30:00,
2013-10-30 12:35:00,70.1,61.0,30.26,SE,126,1.0,9.0,73,0.00,,---,0.00,VWS V14.01,2013-10-30 16:35:00,
2013-10-30 12:40:00,70.1,61.4,30.26,SE,139,4.0,9.0,74,0.00,,---,0.00,VWS V14.01,2013-10-30 16:40:00,
2013-10-30 12:45:00,70.2,61.5,30.26,SE,128,3.0,9.0,74,0.00,,---,0.00,VWS V14.01,2013-10-30 16:45:00,
2013-10-30 12:50:00,70.2,60.8,30.25,SE,135,5.0,9.0,72,0.00,,---,0.00,VWS V14.01,2013-10-30 16:50:00,
2013-10-30 12:55:00,70.4,61.3,30.25,SE,146,3.0,9.0,73,0.00,,---,0.00,VWS V14.01,2013-10-30 16:55:00,
2013-10-30 13:00:00,70.8,61.7,30.24,ESE,119,3.0,6.0,73,0.00,,---,0.00,VWS V14.01,2013-10-30 17:00:00,
2013-10-30 13:05:00,70.8,61.3,30.24,SE,140,6.0,7.0,72,0.00,,---,0.00,VWS V14.01,2013-10-30 17:05:00,
2013-10-30 13:10:00,70.4,61.3,30.24,SSE,153,2.0,7.0,73,0.00,,---,0.00,VWS V14.01,2013-10-30 17:10:00,
2013-10-30 13:15:00,70.3,61.2,30.24,SSE,161,5.0,7.0,73,0.00,,---,0.00,VWS V14.01,2013-10-30 17:15:00,
2013-10-30 13:20:00,69.9,60.9,30.23,SSE,163,5.0,7.0,73,0.00,,---,0.00,VWS V14.01,2013-10-30 17:20:00,
2013-10-30 13:25:00,69.6,61.0,30.23,South,170,4.0,8.0,74,0.00,,---,0.00,VWS V14.01,2013-10-30 17:25:00,
2013-10-30 13:30:00,69.6,61.7,30.23,South,190,0.0,6.0,76,0.00,,---,0.00,VWS V14.01,2013-10-30 17:30:00,
2013-10-30 13:35:00,69.5,60.9,30.23,South,178,0.0,7.0,74,0.00,,---,0.00,VWS V14.01,2013-10-30 17:35:00,
2013-10-30 13:40:00,69.4,61.1,30.23,South,176,4.0,7.0,75,0.00,,---,0.00,VWS V14.01,2013-10-30 17:40:00,
2013-10-30 13:45:00,69.6,61.3,30.23,SSE,156,5.0,7.0,75,0.00,,---,0.00,VWS V14.01,2013-10-30 17:45:00,
2013-10-30 13:50:00,70.1,61.8,30.23,SSE,155,2.0,7.0,75,0.00,,---,0.00,VWS V14.01,2013-10-30 17:50:00,
2013-10-30 13:55:00,70.3,61.2,30.22,SSE,166,3.0,7.0,73,0.00,,---,0.00,VWS V14.01,2013-10-30 17:55:00,
2013-10-30 14:00:00,70.5,61.8,30.22,SSE,167,3.0,6.0,74,0.00,,---,0.00,VWS V14.01,2013-10-30 18:00:00,
2013-10-30 14:05:00,70.5,61.4,30.22,South,189,0.0,10.0,73,0.00,,---,0.00,VWS V14.01,2013-10-30 18:05:00,
2013-10-30 14:10:00,70.9,62.6,30.21,SSE,153,6.0,10.0,75,0.00,,---,0.00,VWS V14.01,2013-10-30 18:10:00,
2013-10-30 14:15:00,70.4,61.0,30.21,SE,144,4.0,10.0,72,0.00,,---,0.00,VWS V14.01,2013-10-30 18:15:00,
2013-10-30 14:20:00,70.3,61.6,30.21,SE,141,5.0,10.0,74,0.00,,---,0.00,VWS V14.01,2013-10-30 18:20:00,
2013-10-30 14:25:00,70.4,61.7,30.21,SSE,158,7.0,10.0,74,0.00,,---,0.00,VWS V14.01,2013-10-30 18:25:00,
2013-10-30 14:30:00,70.5,61.8,30.21,SE,140,8.0,8.0,74,0.00,,---,0.00,VWS V14.01,2013-10-30 18:30:00,
2013-10-30 14:35:00,70.6,61.9,30.21,SSE,154,7.0,10.0,74,0.00,,---,0.00,VWS V14.01,2013-10-30 18:35:00,
2013-10-30 14:40:00,70.4,61.3,30.21,SSE,165,5.0,10.0,73,0.00,,---,0.00,VWS V14.01,2013-10-30 18:40:00,
2013-10-30 14:45:00,70.1,61.8,30.20,South,169,4.0,10.0,75,0.00,,---,0.00,VWS V14.01,2013-10-30 18:45:00,
2013-10-30 14:50:00,70.3,61.6,30.20,SSE,159,10.0,10.0,74,0.00,,---,0.00,VWS V14.01,2013-10-30 18:50:00,
2013-10-30 14:55:00,70.3,61.6,30.20,SSE,155,7.0,10.0,74,0.00,,---,0.00,VWS V14.01,2013-10-30 18:55:00,
2013-10-30 15:00:00,70.2,61.5,30.19,South,180,0.0,5.0,74,0.00,,---,0.00,VWS V14.01,2013-10-30 19:00:00,
2013-10-30 15:05:00,70.4,62.1,30.19,South,181,6.0,10.0,75,0.00,,---,0.00,VWS V14.01,2013-10-30 19:05:00,
2013-10-30 15:10:00,70.8,61.7,30.19,SSE,165,7.0,13.0,73,0.00,,---,0.00,VWS V14.01,2013-10-30 19:10:00,
2013-10-30 15:15:00,70.8,61.7,30.19,South,180,4.0,13.0,73,0.00,,---,0.00,VWS V14.01,2013-10-30 19:15:00,
2013-10-30 15:20:00,70.5,61.4,30.19,SSE,168,3.0,13.0,73,0.00,,---,0.00,VWS V14.01,2013-10-30 19:20:00,
2013-10-30 15:25:00,70.5,61.8,30.19,SSW,194,9.0,13.0,74,0.00,,---,0.00,VWS V14.01,2013-10-30 19:25:00,
2013-10-30 15:30:00,70.4,61.3,30.19,SSE,156,4.0,7.0,73,0.00,,---,0.00,VWS V14.01,2013-10-30 19:30:00,
2013-10-30 15:35:00,70.5,61.8,30.19,SSE,166,5.0,11.0,74,0.00,,---,0.00,VWS V14.01,2013-10-30 19:35:00,
2013-10-30 15:40:00,70.4,61.3,30.18,South,180,6.0,11.0,73,0.00,,---,0.00,VWS V14.01,2013-10-30 19:40:00,
2013-10-30 15:45:00,70.5,61.8,30.18,SSW,192,7.0,11.0,74,0.00,,---,0.00,VWS V14.01,2013-10-30 19:45:00,
2013-10-30 15:50:00,70.6,61.9,30.18,South,175,3.0,11.0,74,0.00,,---,0.00,VWS V14.01,2013-10-30 19:50:00,
2013-10-30 15:55:00,70.8,61.7,30.18,South,175,6.0,11.0,73,0.00,,---,0.00,VWS V14.01,2013-10-30 19:55:00,
2013-10-30 16:00:00,70.6,61.5,30.18,South,174,3.0,6.0,73,0.00,,---,0.00,VWS V14.01,2013-10-30 20:00:00,
2013-10-30 16:05:00,70.4,61.3,30.18,South,173,6.0,8.0,73,0.00,,---,0.00,VWS V14.01,2013-10-30 20:05:00,
2013-10-30 16:10:00,70.6,61.9,30.18,South,175,5.0,8.0,74,0.00,,---,0.00,VWS V14.01,2013-10-30 20:10:00,
2013-10-30 16:15:00,70.5,61.4,30.18,South,173,5.0,10.0,73,0.00,,---,0.00,VWS V14.01,2013-10-30 20:15:00,
2013-10-30 16:20:00,70.3,61.2,30.18,SSE,159,5.0,10.0,73,0.00,,---,0.00,VWS V14.01,2013-10-30 20:20:00,
2013-10-30 16:25:00,70.4,61.0,30.18,South,185,4.0,10.0,72,0.00,,---,0.00,VWS V14.01,2013-10-30 20:25:00,
2013-10-30 16:30:00,70.3,61.2,30.18,South,180,6.0,6.0,73,0.00,,---,0.00,VWS V14.01,2013-10-30 20:30:00,
2013-10-30 16:35:00,70.4,61.3,30.18,SSW,200,7.0,9.0,73,0.00,,---,0.00,VWS V14.01,2013-10-30 20:35:00,
2013-10-30 16:40:00,70.2,60.4,30.18,South,188,4.0,9.0,71,0.00,,---,0.00,VWS V14.01,2013-10-30 20:40:00,
2013-10-30 16:45:00,70.4,61.3,30.17,South,175,2.0,9.0,73,0.00,,---,0.00,VWS V14.01,2013-10-30 20:45:00,
2013-10-30 16:50:00,70.4,61.3,30.18,South,182,6.0,9.0,73,0.00,,---,0.00,VWS V14.01,2013-10-30 20:50:00,
2013-10-30 16:55:00,70.3,61.2,30.18,South,191,6.0,9.0,73,0.00,,---,0.00,VWS V14.01,2013-10-30 20:55:00,
2013-10-30 17:00:00,70.3,61.2,30.18,South,178,0.0,5.0,73,0.00,,---,0.00,VWS V14.01,2013-10-30 21:00:00,
2013-10-30 17:05:00,70.5,61.4,30.17,SSW,196,2.0,5.0,73,0.00,,---,0.00,VWS V14.01,2013-10-30 21:05:00,
2013-10-30 17:10:00,70.5,61.8,30.17,South,190,5.0,5.0,74,0.00,,---,0.00,VWS V14.01,2013-10-30 21:10:00,
2013-10-30 17:15:00,70.4,61.7,30.17,SSW,194,0.0,7.0,74,0.00,,---,0.00,VWS V14.01,2013-10-30 21:15:00,
2013-10-30 17:20:00,70.3,61.6,30.17,South,178,5.0,7.0,74,0.00,,---,0.00,VWS V14.01,2013-10-30 21:20:00,
2013-10-30 17:25:00,70.1,61.4,30.17,SSW,192,4.0,7.0,74,0.00,,---,0.00,VWS V14.01,2013-10-30 21:25:00,
2013-10-30 17:30:00,69.9,61.2,30.17,South,178,3.0,5.0,74,0.00,,---,0.00,VWS V14.01,2013-10-30 21:30:00,
2013-10-30 17:35:00,69.8,61.5,30.17,South,188,5.0,7.0,75,0.00,,---,0.00,VWS V14.01,2013-10-30 21:35:00,
2013-10-30 17:40:00,70.2,64.1,30.17,SE,125,0.0,7.0,81,0.00,,---,0.00,VWS V14.01,2013-10-30 21:40:00,
2013-10-30 17:45:00,70.1,64.0,30.17,SE,125,0.0,7.0,81,0.00,,---,0.00,VWS V14.01,2013-10-30 21:45:00,
2013-10-30 17:50:00,70.0,63.9,30.17,SE,125,0.0,7.0,81,0.00,,---,0.00,VWS V14.01,2013-10-30 21:50:00,
2013-10-30 17:55:00,69.9,64.2,30.17,SE,125,1.0,7.0,82,0.00,,---,0.00,VWS V14.01,2013-10-30 21:55:00,
2013-10-30 18:00:00,69.9,64.2,30.17,SE,125,1.0,1.0,82,0.00,,---,0.00,VWS V14.01,2013-10-30 22:00:00,
2013-10-30 18:05:00,69.3,61.4,30.17,SSW,207,0.0,5.0,76,0.00,,---,0.00,VWS V14.01,2013-10-30 22:05:00,
2013-10-30 18:10:00,69.1,61.6,30.18,SSW,209,0.0,5.0,77,0.00,,---,0.00,VWS V14.01,2013-10-30 22:10:00,
2013-10-30 18:15:00,68.9,61.0,30.18,SSW,209,0.0,5.0,76,0.00,,---,0.00,VWS V14.01,2013-10-30 22:15:00,
2013-10-30 18:20:00,68.6,61.1,30.18,SSW,210,0.0,5.0,77,0.00,,---,0.00,VWS V14.01,2013-10-30 22:20:00,
2013-10-30 18:25:00,68.4,61.3,30.18,SSW,210,0.0,5.0,78,0.00,,---,0.00,VWS V14.01,2013-10-30 22:25:00,
2013-10-30 18:30:00,68.2,61.1,30.18,SSW,210,0.0,0.0,78,0.00,,---,0.00,VWS V14.01,2013-10-30 22:30:00,
2013-10-30 18:35:00,68.1,61.0,30.18,SSW,210,0.0,0.0,78,0.00,,---,0.00,VWS V14.01,2013-10-30 22:35:00,
2013-10-30 18:40:00,67.9,61.2,30.18,SSW,210,0.0,0.0,79,0.00,,---,0.00,VWS V14.01,2013-10-30 22:40:00,
2013-10-30 18:45:00,67.7,61.0,30.19,SSW,210,0.0,0.0,79,0.00,,---,0.00,VWS V14.01,2013-10-30 22:45:00,
2013-10-30 18:50:00,67.5,60.8,30.19,SSW,210,0.0,0.0,79,0.00,,---,0.00,VWS V14.01,2013-10-30 22:50:00,
2013-10-30 18:55:00,67.4,60.7,30.18,SSW,210,0.0,0.0,79,0.00,,---,0.00,VWS V14.01,2013-10-30 22:55:00,
2013-10-30 19:00:00,67.2,60.8,30.19,SSW,210,0.0,0.0,80,0.00,,---,0.00,VWS V14.01,2013-10-30 23:00:00,
2013-10-30 19:05:00,67.0,60.6,30.19,SSW,210,0.0,0.0,80,0.00,,---,0.00,VWS V14.01,2013-10-30 23:05:00,
2013-10-30 19:10:00,66.9,60.5,30.19,SSW,210,0.0,0.0,80,0.00,,---,0.00,VWS V14.01,2013-10-30 23:10:00,
2013-10-30 19:15:00,66.7,60.3,30.19,SSW,210,0.0,0.0,80,0.00,,---,0.00,VWS V14.01,2013-10-30 23:15:00,
2013-10-30 19:20:00,66.4,60.0,30.19,SSW,210,0.0,0.0,80,0.00,,---,0.00,VWS V14.01,2013-10-30 23:20:00,
2013-10-30 19:25:00,66.2,60.2,30.20,SSW,210,0.0,0.0,81,0.00,,---,0.00,VWS V14.01,2013-10-30 23:25:00,
2013-10-30 19:30:00,66.0,60.0,30.20,SSW,210,0.0,0.0,81,0.00,,---,0.00,VWS V14.01,2013-10-30 23:30:00,
2013-10-30 19:35:00,65.7,59.7,30.21,SSW,210,0.0,0.0,81,0.00,,---,0.00,VWS V14.01,2013-10-30 23:35:00,
2013-10-30 19:40:00,65.5,59.5,30.21,SSW,210,0.0,0.0,81,0.00,,---,0.00,VWS V14.01,2013-10-30 23:40:00,
2013-10-30 19:45:00,65.4,59.8,30.22,SSW,210,0.0,0.0,82,0.00,,---,0.00,VWS V14.01,2013-10-30 23:45:00,
2013-10-30 19:50:00,65.2,59.6,30.22,SSW,210,0.0,0.0,82,0.00,,---,0.00,VWS V14.01,2013-10-30 23:50:00,
2013-10-30 19:55:00,65.1,59.5,30.22,SSW,210,0.0,0.0,82,0.00,,---,0.00,VWS V14.01,2013-10-30 23:55:00,
2013-10-30 20:00:00,67.2,60.8,30.19,SSW,210,0.0,0.0,80,0.00,,---,0.00,VWS V14.01,2013-10-31 00:00:00,
2013-10-30 20:01:00,65.0,59.7,30.22,SSW,210,0.0,0.0,83,0.00,,---,0.00,VWS V14.01,2013-10-31 00:01:00,
2013-10-30 20:06:00,64.9,59.6,30.21,SSW,210,0.0,0.0,83,0.00,,---,0.00,VWS V14.01,2013-10-31 00:06:00,
2013-10-30 20:11:00,64.8,59.5,30.21,SSW,210,0.0,0.0,83,0.00,,---,0.00,VWS V14.01,2013-10-31 00:11:00,
2013-10-30 20:16:00,64.7,59.4,30.21,SSW,210,0.0,0.0,83,0.00,,---,0.00,VWS V14.01,2013-10-31 00:16:00,
2013-10-30 20:21:00,64.6,59.3,30.21,SSW,210,0.0,0.0,83,0.00,,---,0.00,VWS V14.01,2013-10-31 00:21:00,
2013-10-30 20:26:00,64.5,59.2,30.20,SSW,210,0.0,0.0,83,0.00,,---,0.00,VWS V14.01,2013-10-31 00:26:00,
2013-10-30 20:30:00,66.1,60.1,30.20,SSW,210,0.0,0.0,81,0.00,,---,0.00,VWS V14.01,2013-10-31 00:30:00,
2013-10-30 20:31:00,64.5,59.6,30.20,SSW,210,0.0,0.0,84,0.00,,---,0.00,VWS V14.01,2013-10-31 00:31:00,
2013-10-30 20:36:00,64.3,59.4,30.20,SSW,210,0.0,0.0,84,0.00,,---,0.00,VWS V14.01,2013-10-31 00:36:00,
2013-10-30 20:41:00,64.2,59.3,30.19,SSW,210,0.0,0.0,84,0.00,,---,0.00,VWS V14.01,2013-10-31 00:41:00,
2013-10-30 20:46:00,64.1,59.2,30.19,SSW,210,0.0,0.0,84,0.00,,---,0.00,VWS V14.01,2013-10-31 00:46:00,
2013-10-30 20:51:00,64.0,59.4,30.19,SSW,210,0.0,0.0,85,0.00,,---,0.00,VWS V14.01,2013-10-31 00:51:00,
2013-10-30 20:56:00,64.1,59.5,30.19,SSW,210,0.0,0.0,85,0.00,,---,0.00,VWS V14.01,2013-10-31 00:56:00,
2013-10-30 21:00:00,65.0,59.7,30.22,SSW,210,0.0,0.0,83,0.00,,---,0.00,VWS V14.01,2013-10-31 01:00:00,
2013-10-30 21:01:00,64.1,59.5,30.19,SSW,210,0.0,0.0,85,0.00,,---,0.00,VWS V14.01,2013-10-31 01:01:00,
2013-10-30 21:06:00,64.1,59.5,30.19,SSW,210,0.0,0.0,85,0.00,,---,0.00,VWS V14.01,2013-10-31 01:06:00,
2013-10-30 21:11:00,64.1,59.5,30.20,SSW,210,0.0,0.0,85,0.00,,---,0.00,VWS V14.01,2013-10-31 01:11:00,
2013-10-30 21:16:00,63.9,59.3,30.19,SSW,210,0.0,0.0,85,0.00,,---,0.00,VWS V14.01,2013-10-31 01:16:00,
2013-10-30 21:21:00,63.7,59.1,30.19,SSW,210,0.0,0.0,85,0.00,,---,0.00,VWS V14.01,2013-10-31 01:21:00,
2013-10-30 21:26:00,63.6,59.0,30.19,SSW,210,0.0,0.0,85,0.00,,---,0.00,VWS V14.01,2013-10-31 01:26:00,
2013-10-30 21:30:00,64.5,59.6,30.20,SSW,210,0.0,0.0,84,0.00,,---,0.00,VWS V14.01,2013-10-31 01:30:00,
2013-10-30 21:31:00,63.5,58.9,30.19,SSW,210,0.0,0.0,85,0.00,,---,0.00,VWS V14.01,2013-10-31 01:31:00,
2013-10-30 21:36:00,63.4,58.8,30.19,SSW,210,0.0,0.0,85,0.00,,---,0.00,VWS V14.01,2013-10-31 01:36:00,
2013-10-30 21:41:00,63.3,58.7,30.19,SSW,210,0.0,0.0,85,0.00,,---,0.00,VWS V14.01,2013-10-31 01:41:00,
2013-10-30 21:45:00,63.2,58.6,30.19,SSW,210,0.0,0.0,85,0.00,,---,0.00,VWS V14.01,2013-10-31 01:45:00,
2013-10-30 21:50:00,63.1,58.8,30.19,SSW,210,0.0,0.0,86,0.00,,---,0.00,VWS V14.01,2013-10-31 01:50:00,
2013-10-30 21:55:00,63.0,58.4,30.20,SSW,210,0.0,0.0,85,0.00,,---,0.00,VWS V14.01,2013-10-31 01:55:00,
2013-10-30 22:00:00,62.9,58.3,30.20,SSW,210,0.0,0.0,85,0.00,,---,0.00,VWS V14.01,2013-10-31 02:00:00,
2013-10-30 22:06:00,62.7,58.1,30.20,SSW,210,0.0,0.0,85,0.00,,---,0.00,VWS V14.01,2013-10-31 02:06:00,
2013-10-30 22:11:00,62.6,58.4,30.20,SSW,210,0.0,0.0,86,0.00,,---,0.00,VWS V14.01,2013-10-31 02:11:00,
2013-10-30 22:16:00,62.3,58.1,30.21,SSW,210,0.0,0.0,86,0.00,,---,0.00,VWS V14.01,2013-10-31 02:16:00,
2013-10-30 22:21:00,62.3,58.1,30.20,SSW,210,0.0,0.0,86,0.00,,---,0.00,VWS V14.01,2013-10-31 02:21:00,
2013-10-30 22:26:00,62.2,58.0,30.20,SSW,210,0.0,0.0,86,0.00,,---,0.00,VWS V14.01,2013-10-31 02:26:00,
2013-10-30 22:30:00,63.5,58.9,30.19,SSW,210,0.0,0.0,85,0.00,,---,0.00,VWS V14.01,2013-10-31 02:30:00,
2013-10-30 22:31:00,62.0,57.8,30.20,SSW,210,0.0,0.0,86,0.00,,---,0.00,VWS V14.01,2013-10-31 02:31:00,
2013-10-30 22:36:00,61.8,57.6,30.20,SSW,210,0.0,0.0,86,0.00,,---,0.00,VWS V14.01,2013-10-31 02:36:00,
2013-10-30 22:41:00,61.8,57.6,30.20,SSW,210,0.0,0.0,86,0.00,,---,0.00,VWS V14.01,2013-10-31 02:41:00,
2013-10-30 22:46:00,61.7,57.5,30.20,SSW,210,0.0,0.0,86,0.00,,---,0.00,VWS V14.01,2013-10-31 02:46:00,
2013-10-30 22:51:00,61.7,57.5,30.20,SSW,210,0.0,0.0,86,0.00,,---,0.00,VWS V14.01,2013-10-31 02:51:00,
2013-10-30 22:56:00,61.6,57.4,30.20,SSW,210,0.0,0.0,86,0.00,,---,0.00,VWS V14.01,2013-10-31 02:56:00,
2013-10-30 23:00:00,61.5,57.3,30.20,SSW,210,0.0,0.0,86,0.00,,---,0.00,VWS V14.01,2013-10-31 03:00:00,
2013-10-30 23:05:00,61.3,57.1,30.20,SSW,210,0.0,0.0,86,0.00,,---,0.00,VWS V14.01,2013-10-31 03:05:00,
2013-10-30 23:10:00,61.2,57.0,30.20,SSW,210,0.0,0.0,86,0.00,,---,0.00,VWS V14.01,2013-10-31 03:10:00,
2013-10-30 23:15:00,61.1,56.9,30.20,SSW,210,0.0,0.0,86,0.00,,---,0.00,VWS V14.01,2013-10-31 03:15:00,
2013-10-30 23:20:00,61.0,56.8,30.20,SSW,210,0.0,0.0,86,0.00,,---,0.00,VWS V14.01,2013-10-31 03:20:00,
2013-10-30 23:25:00,60.9,56.7,30.20,SSW,210,0.0,0.0,86,0.00,,---,0.00,VWS V14.01,2013-10-31 03:25:00,
2013-10-30 23:30:00,60.8,56.6,30.20,SSW,210,0.0,0.0,86,0.00,,---,0.00,VWS V14.01,2013-10-31 03:30:00,
2013-10-30 23:35:00,60.8,56.6,30.20,SSW,210,0.0,0.0,86,0.00,,---,0.00,VWS V14.01,2013-10-31 03:35:00,
2013-10-30 23:40:00,60.6,56.4,30.20,SSW,210,0.0,0.0,86,0.00,,---,0.00,VWS V14.01,2013-10-31 03:40:00,
2013-10-30 23:45:00,60.5,56.3,30.20,SSW,210,0.0,0.0,86,0.00,,---,0.00,VWS V14.01,2013-10-31 03:45:00,
2013-10-30 23:50:00,60.5,56.6,30.20,SSW,210,0.0,0.0,87,0.00,,---,0.00,VWS V14.01,2013-10-31 03:50:00,
2013-10-30 23:55:00,60.5,56.6,30.19,SSW,210,0.0,0.0,87,0.00,,---,0.00,VWS V14.01,2013-10-31 03:55:00,